L'Europe — FKJB — position and weather

sailwx.info

Track history (hours):
 
Tides and Currents Weather Stations Pressure Air Temp Water Temp Dewpoint Dewpoint Depression Visibility Wind Speed Wind Dir Waves Ship Positions

Oceanographic research ship L'Europe (France)

Detailed information on ship capabilities available from University of Delaware's Ocean Information Center.

Last reported at 2017-Jun-23 02:47 UTC. Time now 2017-Jun-23 05:19 UTC.
Position N 42°38' E 003°43'.

Length 30 m; beam 11 m.

Type: Fishing. MMSI: 227403000.

Date/timePositionNaut miles runAvg speedWind from/ knotsBaromVisibWave heightAir tempDewpointWater temp
2017-Jun-23 02:47N 42°38' E 003°43'2 0.7
2017-Jun-22 23:43N 42°39' E 003°45'0 0.5
2017-Jun-22 23:23N 42°39' E 003°45'3 0.6
2017-Jun-22 17:55N 42°36' E 003°42'0 0.6
2017-Jun-22 17:20N 42°36' E 003°42'0 0.4
2017-Jun-22 16:51N 42°36' E 003°42'3 5.7
2017-Jun-22 16:24N 42°35' E 003°45'19 0.9
2017-Jun-21 20:15N 42°42' E 004°09'3 0.9
2017-Jun-21 16:37N 42°39' E 004°09'0 0.8
2017-Jun-21 16:19N 42°39' E 004°10'2 1.8
2017-Jun-21 15:09N 42°40' E 004°08'1 3.3
2017-Jun-21 14:47N 42°41' E 004°06'1 3.2
2017-Jun-21 14:25N 42°42' E 004°05'5 2.5
2017-Jun-21 12:17N 42°37' E 004°01'0 1.3
2017-Jun-21 11:58N 42°38' E 004°01'37 6.6
2017-Jun-21 06:19N 43°13' E 003°47'610.0
2017-Jun-21 05:45N 43°19' E 003°46'1 0.0
2017-Jun-19 14:39N 43°19' E 003°44'2010.1
2017-Jun-19 12:39N 42°58' E 003°43'21 3.5
2017-Jun-19 06:40N 42°52' E 004°10'5 1.2
2017-Jun-19 02:50N 42°48' E 004°15'31 2.3
2017-Jun-18 13:05N 42°31' E 003°39'40 0.9
2017-Jun-16 14:51N 42°54' E 004°23'5 2.5
2017-Jun-16 12:51N 42°59' E 004°26'9 4.7
2017-Jun-16 10:52N 43°08' E 004°27'2 3.1
2017-Jun-16 10:09N 43°10' E 004°26'7 5.5
2017-Jun-16 08:52N 43°07' E 004°17'8 4.0
2017-Jun-16 06:52N 43°06' E 004°06'8 0.5
2017-Jun-15 15:33N 42°59' E 004°02'0 2.0
2017-Jun-15 15:30N 42°59' E 004°02'8 3.2
2017-Jun-15 12:55N 42°57' E 003°51'8 4.0
2017-Jun-15 10:55N 43°05' E 003°52'2 0.9
2017-Jun-15 08:56N 43°07' E 003°52'15 7.3
2017-Jun-15 06:55N 43°17' E 003°37'8 4.3
2017-Jun-15 04:57N 43°24' E 003°42'0 0.0
2017-Jun-13 17:03N 43°24' E 003°42'0 0.0
2017-Jun-13 17:00N 43°24' E 003°42'0 0.0
2017-Jun-13 15:03N 43°24' E 003°42'0 0.0
2017-Jun-13 15:00N 43°24' E 003°42'11 5.5
2017-Jun-13 13:03N 43°13' E 003°41'0 9.9
2017-Jun-13 13:00N 43°13' E 003°41'  
Track history (hours):
 
Tides and Currents Weather Stations Pressure Air Temp Water Temp Dewpoint Dewpoint Depression Visibility Wind Speed Wind Dir Waves Ship Positions

Oceanographic research ship L'Europe (France)

Detailed information on ship capabilities available from University of Delaware's Ocean Information Center.

Last reported at 2017-Jun-23 02:47 UTC. Time now 2017-Jun-23 05:19 UTC.
Position N 42°38' E 003°43'.

Length 30 m; beam 11 m.

Type: Fishing. MMSI: 227403000.

Date/timePositionNaut miles runAvg speedWind from/ knotsBaromVisibWave heightAir tempDewpointWater temp
2017-Jun-23 02:47N 42°38' E 003°43'2 0.7
2017-Jun-22 23:43N 42°39' E 003°45'0 0.5
2017-Jun-22 23:23N 42°39' E 003°45'3 0.6
2017-Jun-22 17:55N 42°36' E 003°42'0 0.6
2017-Jun-22 17:20N 42°36' E 003°42'0 0.4
2017-Jun-22 16:51N 42°36' E 003°42'3 5.7
2017-Jun-22 16:24N 42°35' E 003°45'19 0.9
2017-Jun-21 20:15N 42°42' E 004°09'3 0.9
2017-Jun-21 16:37N 42°39' E 004°09'0 0.8
2017-Jun-21 16:19N 42°39' E 004°10'2 1.8
2017-Jun-21 15:09N 42°40' E 004°08'1 3.3
2017-Jun-21 14:47N 42°41' E 004°06'1 3.2
2017-Jun-21 14:25N 42°42' E 004°05'5 2.5
2017-Jun-21 12:17N 42°37' E 004°01'0 1.3
2017-Jun-21 11:58N 42°38' E 004°01'37 6.6
2017-Jun-21 06:19N 43°13' E 003°47'610.0
2017-Jun-21 05:45N 43°19' E 003°46'1 0.0
2017-Jun-19 14:39N 43°19' E 003°44'2010.1
2017-Jun-19 12:39N 42°58' E 003°43'21 3.5
2017-Jun-19 06:40N 42°52' E 004°10'5 1.2
2017-Jun-19 02:50N 42°48' E 004°15'31 2.3
2017-Jun-18 13:05N 42°31' E 003°39'40 0.9
2017-Jun-16 14:51N 42°54' E 004°23'5 2.5
2017-Jun-16 12:51N 42°59' E 004°26'9 4.7
2017-Jun-16 10:52N 43°08' E 004°27'2 3.1
2017-Jun-16 10:09N 43°10' E 004°26'7 5.5
2017-Jun-16 08:52N 43°07' E 004°17'8 4.0
2017-Jun-16 06:52N 43°06' E 004°06'8 0.5
2017-Jun-15 15:33N 42°59' E 004°02'0 2.0
2017-Jun-15 15:30N 42°59' E 004°02'8 3.2
2017-Jun-15 12:55N 42°57' E 003°51'8 4.0
2017-Jun-15 10:55N 43°05' E 003°52'2 0.9
2017-Jun-15 08:56N 43°07' E 003°52'15 7.3
2017-Jun-15 06:55N 43°17' E 003°37'8 4.3
2017-Jun-15 04:57N 43°24' E 003°42'0 0.0
2017-Jun-13 17:03N 43°24' E 003°42'0 0.0
2017-Jun-13 17:00N 43°24' E 003°42'0 0.0
2017-Jun-13 15:03N 43°24' E 003°42'0 0.0
2017-Jun-13 15:00N 43°24' E 003°42'11 5.5
2017-Jun-13 13:03N 43°13' E 003°41'0 9.9
2017-Jun-13 13:00N 43°13' E 003°41'  

Dump ship's entire track history